Terminal Aerodrome Forecast
Issued by NWS Upton, NY

Home | Current Version | Previous Version | Text Only | Print | Product List | Glossary On
Versions: 1 2 3 4 5 6 7 8 9 10 11 12 13 14 15 16 17 18 19 20 21 22 23 24 25 26 27
000
FTUS41 KOKX 290800 AAA
TAFJFK
TAF AMD
KJFK 290852Z 2909/3012 35007KT P6SM SKC
     FM291400 VRB05KT P6SM SKC
     FM291700 14006KT P6SM SCT025 BKN120
     FM292300 16012G18KT P6SM SCT025 BKN080
     FM300200 19012G18KT P6SM BKN025 BKN050
     FM300400 19010KT 3SM -SN BKN015
     FM300600 21012KT 1SM -SN SCT007 BKN015
     FM301000 25012KT 2SM -SN SCT007 BKN015=

USA.gov is the U.S. government's official web portal to all federal, state and local government web resources and services.